Time;durP1;ratioP1;P1;durP2;ratioP2;P2;SDS_P1;SDS_P2;PMS_P1;PMS_P2;Temp;Humidity;BMP_temperature;BMP_pressure;BME280_temperature;BME280_humidity;BME280_pressure;Samples;Min_cycle;Max_cycle;Signal;HPM_P1;HPM_P2
2022/06/17 00:00:31;;;;;;;2.20;2.10;;;27.10;44.90;;;;;;4897101;29;20537;-88
2022/06/17 00:03:01;;;;;;;2.37;2.17;;;27.00;45.00;;;;;;4896808;29;20546;-88
2022/06/17 00:05:29;;;;;;;2.43;2.20;;;27.00;45.00;;;;;;4897350;29;20974;-89
2022/06/17 00:07:57;;;;;;;2.17;2.07;;;27.00;45.10;;;;;;4892619;29;20611;-88
2022/06/17 00:10:26;;;;;;;4.10;2.40;;;27.00;45.20;;;;;;4897597;29;20515;-89
2022/06/17 00:12:54;;;;;;;2.90;2.70;;;26.90;45.20;;;;;;4897611;29;20500;-88
2022/06/17 00:15:22;;;;;;;2.13;2.03;;;26.90;45.10;;;;;;4905350;29;20481;-88
2022/06/17 00:17:52;;;;;;;2.30;2.17;;;26.90;45.20;;;;;;4897040;29;20508;-88
2022/06/17 00:20:23;;;;;;;2.47;1.93;;;26.90;45.40;;;;;;4896820;29;20525;-88
2022/06/17 00:22:51;;;;;;;2.33;2.23;;;26.80;45.20;;;;;;4896799;29;20561;-88
2022/06/17 00:25:40;;;;;;;2.40;2.23;;;26.80;45.30;;;;;;4896523;29;20505;-89
2022/06/17 00:28:11;;;;;;;2.53;2.30;;;26.80;45.30;;;;;;4896582;29;20997;-89
2022/06/17 00:30:39;;;;;;;2.63;2.43;;;26.70;45.40;;;;;;4896729;29;20525;-88
2022/06/17 00:33:08;;;;;;;2.33;2.20;;;26.70;45.40;;;;;;4897186;29;20509;-88
2022/06/17 00:35:38;;;;;;;3.30;2.37;;;26.70;45.50;;;;;;4896836;29;20528;-88
2022/06/17 00:38:07;;;;;;;2.30;2.20;;;26.60;45.60;;;;;;4896592;29;20545;-89
2022/06/17 00:40:35;;;;;;;2.33;2.23;;;26.60;45.50;;;;;;4896814;29;20491;-89
2022/06/17 00:43:04;;;;;;;2.70;2.50;;;26.60;45.70;;;;;;4896524;29;20465;-88
2022/06/17 00:45:33;;;;;;;1.90;1.80;;;26.60;45.70;;;;;;4896408;29;20454;-89
2022/06/17 00:48:04;;;;;;;2.60;2.40;;;26.50;45.60;;;;;;4896517;29;20916;-89
2022/06/17 00:50:36;;;;;;;4.90;2.13;;;26.50;45.70;;;;;;4896295;29;20458;-89
2022/06/17 00:53:11;;;;;;;2.63;2.43;;;26.60;45.80;;;;;;4896499;29;20501;-88
2022/06/17 00:55:42;;;;;;;2.00;1.90;;;26.50;45.70;;;;;;4896158;29;20976;-89
2022/06/17 00:58:14;;;;;;;2.47;2.27;;;26.40;45.70;;;;;;4896582;29;20474;-89
2022/06/17 01:00:44;;;;;;;2.43;2.27;;;26.50;46.00;;;;;;4896374;29;20499;-89
2022/06/17 01:03:18;;;;;;;2.60;2.10;;;26.40;45.80;;;;;;4896010;29;20456;-88
2022/06/17 01:05:49;;;;;;;2.07;1.97;;;26.40;45.80;;;;;;4896071;29;20481;-88
2022/06/17 01:11:07;;;;;;;6.50;2.33;;;26.40;46.00;;;;;;4896716;29;20481;-88
2022/06/17 01:13:35;;;;;;;2.20;2.10;;;26.30;45.90;;;;;;4900167;29;20538;-88
2022/06/17 01:16:04;;;;;;;2.57;2.37;;;26.30;45.90;;;;;;4899941;29;20424;-88
2022/06/17 01:18:33;;;;;;;3.03;2.10;;;26.30;46.10;;;;;;4904958;29;20465;-88
2022/06/17 01:21:06;;;;;;;2.27;2.07;;;26.20;46.00;;;;;;4918744;29;20453;-87
2022/06/17 01:23:37;;;;;;;2.50;2.30;;;26.20;46.10;;;;;;4918698;29;20466;-88
2022/06/17 01:26:05;;;;;;;3.67;2.80;;;26.20;46.00;;;;;;4918509;29;20420;-87
2022/06/17 01:28:33;;;;;;;3.00;2.80;;;26.20;46.10;;;;;;4918871;29;20482;-87
2022/06/17 01:31:04;;;;;;;2.67;2.47;;;26.20;46.10;;;;;;4918958;29;20476;-88
2022/06/17 01:33:34;;;;;;;2.70;2.50;;;26.20;46.10;;;;;;4919100;29;20430;-88
2022/06/17 01:36:04;;;;;;;2.43;2.33;;;26.10;46.30;;;;;;4918705;29;20536;-88
2022/06/17 01:38:35;;;;;;;2.50;2.30;;;26.10;46.20;;;;;;4918471;29;20506;-88
2022/06/17 01:41:08;;;;;;;2.73;2.37;;;26.10;46.30;;;;;;4918320;29;20455;-88
2022/06/17 01:43:39;;;;;;;2.70;2.50;;;26.00;46.20;;;;;;4918388;29;20480;-87
2022/06/17 01:46:10;;;;;;;2.93;2.03;;;26.00;46.30;;;;;;4918516;29;20464;-88
2022/06/17 01:48:43;;;;;;;2.57;2.37;;;26.00;46.40;;;;;;4918055;29;20479;-87
2022/06/17 01:51:11;;;;;;;2.50;2.40;;;26.00;46.20;;;;;;4917990;29;21056;-87
2022/06/17 01:53:40;;;;;;;3.07;2.30;;;26.00;46.50;;;;;;4918519;29;20536;-87
2022/06/17 01:56:11;;;;;;;5.60;2.40;;;26.00;46.40;;;;;;4917871;29;20543;-87
2022/06/17 01:58:42;;;;;;;2.90;2.70;;;26.00;46.40;;;;;;4918600;29;20536;-87
2022/06/17 02:01:10;;;;;;;2.87;2.67;;;25.90;46.40;;;;;;4918183;29;20484;-87
2022/06/17 02:03:41;;;;;;;2.47;2.27;;;25.90;46.40;;;;;;4917921;29;20556;-87
2022/06/17 02:06:10;;;;;;;2.77;2.57;;;25.90;46.40;;;;;;4918305;29;20453;-88
2022/06/17 02:08:38;;;;;;;2.50;2.40;;;25.90;46.50;;;;;;4917463;29;20484;-88
2022/06/17 02:11:06;;;;;;;2.60;2.40;;;25.80;46.40;;;;;;4918274;29;20543;-88
2022/06/17 02:13:40;;;;;;;2.87;2.60;;;25.80;46.50;;;;;;4918016;29;20427;-88
2022/06/17 02:16:08;;;;;;;2.30;2.20;;;25.80;46.60;;;;;;4917535;29;20493;-88
2022/06/17 02:18:36;;;;;;;2.40;2.30;;;25.80;46.40;;;;;;4917449;29;20441;-88
2022/06/17 02:21:08;;;;;;;2.23;2.13;;;25.70;46.60;;;;;;4917814;29;20416;-87
2022/06/17 02:23:36;;;;;;;2.53;2.40;;;25.70;46.60;;;;;;4918606;29;20449;-87
2022/06/17 02:26:04;;;;;;;2.60;2.50;;;25.70;46.60;;;;;;4918475;29;20545;-88
2022/06/17 02:28:32;;;;;;;4.20;2.30;;;25.70;46.70;;;;;;4918033;29;20552;-87
2022/06/17 02:31:02;;;;;;;2.30;2.20;;;25.70;46.60;;;;;;4917958;29;20540;-88
2022/06/17 02:33:30;;;;;;;2.30;2.20;;;25.60;46.60;;;;;;4917752;29;20453;-88
2022/06/17 02:36:00;;;;;;;2.60;2.50;;;25.60;46.60;;;;;;4917448;29;20455;-88
2022/06/17 02:38:30;;;;;;;2.50;2.40;;;25.60;46.70;;;;;;4917500;29;20424;-88
2022/06/17 02:41:00;;;;;;;2.50;2.30;;;25.50;46.90;;;;;;4917331;29;20499;-88
2022/06/17 02:43:29;;;;;;;2.60;2.40;;;25.60;46.70;;;;;;4917304;29;20543;-88
2022/06/17 02:45:59;;;;;;;4.80;2.40;;;25.50;46.70;;;;;;4917578;29;20480;-88
2022/06/17 02:48:31;;;;;;;2.57;2.47;;;25.50;46.70;;;;;;4917214;29;20507;-87
2022/06/17 02:51:00;;;;;;;2.40;2.30;;;25.50;46.80;;;;;;4917491;29;20540;-87
2022/06/17 02:53:30;;;;;;;2.30;2.20;;;25.50;46.80;;;;;;4917121;29;20465;-87
2022/06/17 02:55:58;;;;;;;2.57;2.47;;;25.50;47.00;;;;;;4917166;29;20427;-87
2022/06/17 02:58:31;;;;;;;2.10;2.00;;;25.40;46.60;;;;;;4917100;29;20513;-87
2022/06/17 03:00:59;;;;;;;2.57;2.47;;;25.40;46.80;;;;;;4917462;29;20496;-87
2022/06/17 03:03:28;;;;;;;2.90;2.70;;;25.40;46.90;;;;;;4918370;29;20533;-87
2022/06/17 03:05:57;;;;;;;2.30;2.20;;;25.40;46.70;;;;;;4917359;29;20516;-88
2022/06/17 03:08:26;;;;;;;2.80;2.60;;;25.40;46.90;;;;;;4917076;29;20560;-88
2022/06/17 03:11:09;;;;;;;3.00;2.53;;;25.40;47.00;;;;;;4917847;29;20540;-88
2022/06/17 03:13:41;;;;;;;2.57;2.30;;;25.40;46.90;;;;;;4917612;29;20460;-88
2022/06/17 03:16:11;;;;;;;2.30;2.20;;;25.30;47.00;;;;;;4917139;29;20461;-88
2022/06/17 03:18:41;;;;;;;2.50;2.40;;;25.30;46.80;;;;;;4911019;29;20476;-88
2022/06/17 03:21:09;;;;;;;2.60;2.50;;;25.30;47.00;;;;;;4898545;29;20454;-88
2022/06/17 03:23:40;;;;;;;2.80;2.47;;;25.20;46.90;;;;;;4898181;29;20484;-88
2022/06/17 03:26:11;;;;;;;2.30;2.20;;;25.30;47.00;;;;;;4899076;29;20453;-87
2022/06/17 03:29:12;;;;;;;2.80;2.60;;;25.30;47.20;;;;;;4903052;29;20504;-88
2022/06/17 03:31:43;;;;;;;2.83;2.63;;;25.20;47.10;;;;;;4898695;29;20499;-88
2022/06/17 03:34:14;;;;;;;2.50;2.40;;;25.20;47.10;;;;;;4897442;29;20454;-88
2022/06/17 03:36:44;;;;;;;2.90;2.70;;;25.20;47.10;;;;;;4897771;29;20484;-88
2022/06/17 03:39:15;;;;;;;2.40;2.30;;;25.20;47.00;;;;;;4897432;29;20477;-88
2022/06/17 03:41:46;;;;;;;2.87;2.67;;;25.20;47.40;;;;;;4897501;29;20551;-88
2022/06/17 03:44:15;;;;;;;2.80;2.60;;;25.20;47.10;;;;;;4897878;29;20477;-88
2022/06/17 03:46:46;;;;;;;2.20;2.10;;;25.20;47.00;;;;;;4897158;29;20523;-88
2022/06/17 03:49:18;;;;;;;2.53;2.43;;;25.10;47.10;;;;;;4897381;29;20561;-88
2022/06/17 03:51:46;;;;;;;3.97;2.23;;;25.10;47.20;;;;;;4897283;29;20561;-88
2022/06/17 03:54:14;;;;;;;2.30;2.20;;;25.10;47.20;;;;;;4897197;29;20560;-88
2022/06/17 03:56:43;;;;;;;2.70;2.50;;;25.00;47.10;;;;;;4896816;29;20464;-88
2022/06/17 03:59:15;;;;;;;2.20;2.10;;;25.00;47.10;;;;;;4897499;29;20460;-88
2022/06/17 04:01:44;;;;;;;2.50;2.40;;;25.00;47.20;;;;;;4897044;29;20581;-88
2022/06/17 04:04:17;;;;;;;2.77;2.57;;;25.00;47.10;;;;;;4897200;29;20544;-88
2022/06/17 04:06:46;;;;;;;2.10;2.00;;;25.00;47.20;;;;;;4896977;29;20526;-88
2022/06/17 04:09:16;;;;;;;2.67;2.57;;;25.00;47.60;;;;;;4897069;29;20897;-87
2022/06/17 04:11:46;;;;;;;2.70;2.60;;;25.00;47.30;;;;;;4896747;29;20475;-88
2022/06/17 04:14:23;;;;;;;2.27;2.17;;;25.00;47.40;;;;;;4896654;29;20427;-88
2022/06/17 04:16:58;;;;;;;2.50;2.33;;;25.00;47.20;;;;;;4896952;29;20582;-88
2022/06/17 04:19:28;;;;;;;2.70;2.50;;;24.90;47.30;;;;;;4897468;29;20448;-88
2022/06/17 04:21:59;;;;;;;2.77;2.63;;;24.90;47.10;;;;;;4896619;29;20508;-88
2022/06/17 04:24:28;;;;;;;2.50;2.40;;;24.90;47.30;;;;;;4897039;29;20651;-88
2022/06/17 04:26:59;;;;;;;2.67;2.47;;;24.90;47.40;;;;;;4896524;29;20504;-88
2022/06/17 04:29:31;;;;;;;2.97;2.70;;;24.90;47.40;;;;;;4896800;29;20533;-88
2022/06/17 04:32:01;;;;;;;2.77;2.57;;;24.90;47.30;;;;;;4896580;29;20477;-88
2022/06/17 04:37:33;;;;;;;2.30;2.20;;;24.90;47.20;;;;;;4897443;29;20494;-88
2022/06/17 04:40:05;;;;;;;2.73;2.53;;;24.80;47.30;;;;;;4896527;29;20457;-88
2022/06/17 04:42:34;;;;;;;3.10;2.80;;;24.80;47.40;;;;;;4896634;29;20527;-88
2022/06/17 04:45:03;;;;;;;2.80;2.60;;;24.90;47.30;;;;;;4897843;29;20485;-88
2022/06/17 04:47:31;;;;;;;3.17;2.87;;;24.90;47.50;;;;;;4900501;29;20455;-88
2022/06/17 04:50:02;;;;;;;2.63;2.53;;;24.90;47.40;;;;;;4900421;29;20544;-88
2022/06/17 04:52:34;;;;;;;3.20;3.00;;;24.90;47.30;;;;;;4900273;29;20474;-89
2022/06/17 04:55:03;;;;;;;2.50;2.40;;;24.80;47.30;;;;;;4901593;29;20525;-87
2022/06/17 04:57:31;;;;;;;2.50;2.40;;;24.80;47.10;;;;;;4900651;29;20449;-87
2022/06/17 05:00:00;;;;;;;2.87;2.60;;;24.80;47.30;;;;;;4900403;29;20507;-87
2022/06/17 05:02:29;;;;;;;2.30;2.20;;;24.80;47.10;;;;;;4900219;29;20472;-87
2022/06/17 05:04:58;;;;;;;2.47;2.20;;;24.80;47.20;;;;;;4900745;29;20457;-88
2022/06/17 05:07:28;;;;;;;2.10;2.00;;;24.80;47.20;;;;;;4899939;29;20456;-87
2022/06/17 05:10:20;;;;;;;2.77;2.57;;;24.90;47.10;;;;;;4900117;29;20485;-87
2022/06/17 05:12:54;;;;;;;2.57;2.43;;;24.80;47.30;;;;;;4900237;29;20541;-87
2022/06/17 05:15:38;;;;;;;3.13;2.43;;;24.90;47.30;;;;;;4900172;29;20447;-87
2022/06/17 05:18:18;;;;;;;2.50;2.40;;;24.80;47.10;;;;;;4902524;29;20473;-87
2022/06/17 05:20:54;;;;;;;2.40;2.30;;;24.80;47.20;;;;;;4921048;29;20452;-87
2022/06/17 05:23:35;;;;;;;2.90;2.70;;;24.80;47.20;;;;;;4919438;29;20452;-88
2022/06/17 05:26:07;;;;;;;2.50;2.40;;;24.90;47.10;;;;;;4920240;29;20444;-88
2022/06/17 05:31:52;;;;;;;;;;;;;;;;;;;;;
2022/06/17 05:34:26;;;;;;;2.90;2.70;;;25.00;47.10;;;;;;4914690;29;20465;-87
2022/06/17 05:36:56;;;;;;;4.10;2.40;;;24.90;46.70;;;;;;4919323;29;20472;-88
2022/06/17 05:39:49;;;;;;;2.50;2.40;;;25.00;47.00;;;;;;4918771;29;20444;-88
2022/06/17 05:42:25;;;;;;;2.73;2.57;;;25.00;46.80;;;;;;4918521;29;20468;-88
2022/06/17 05:45:14;;;;;;;2.40;2.30;;;25.10;46.80;;;;;;4918774;29;20499;-88
2022/06/17 05:47:46;;;;;;;3.20;2.33;;;25.10;46.70;;;;;;4919227;29;20480;-88
2022/06/17 05:50:14;;;;;;;2.60;2.50;;;25.10;46.50;;;;;;4918974;29;20488;-87
2022/06/17 05:52:59;;;;;;;3.10;2.90;;;25.20;46.50;;;;;;4920285;29;20480;-88
2022/06/17 05:55:51;;;;;;;2.67;2.57;;;25.20;46.40;;;;;;4919704;29;20461;-88
2022/06/17 05:58:39;;;;;;;2.40;2.30;;;25.30;46.20;;;;;;4920255;29;20456;-88
2022/06/17 06:01:41;;;;;;;3.00;2.80;;;25.40;46.00;;;;;;4920561;29;20453;-88
2022/06/17 06:04:26;;;;;;;2.60;2.50;;;25.40;45.70;;;;;;4919013;29;20458;-88
2022/06/17 06:07:00;;;;;;;2.67;2.50;;;25.50;45.90;;;;;;4919513;29;20541;-88
2022/06/17 06:09:43;;;;;;;2.67;2.47;;;25.50;45.80;;;;;;4919074;29;20476;-88
2022/06/17 06:12:13;;;;;;;2.70;2.40;;;25.60;45.60;;;;;;4918816;29;21067;-88
2022/06/17 06:14:58;;;;;;;2.60;2.43;;;25.60;45.40;;;;;;4918668;29;20467;-88
2022/06/17 06:17:46;;;;;;;2.90;2.60;;;25.70;45.40;;;;;;4918547;29;20483;-88
2022/06/17 06:20:17;;;;;;;2.40;2.30;;;25.70;45.20;;;;;;4900270;29;20446;-88
2022/06/17 06:22:47;;;;;;;2.40;2.30;;;25.70;45.20;;;;;;4899544;29;20473;-88
2022/06/17 06:25:22;;;;;;;2.30;2.20;;;25.70;45.20;;;;;;4899535;29;20457;-88
2022/06/17 06:28:13;;;;;;;2.67;2.37;;;25.80;45.20;;;;;;4920684;29;20437;-88
2022/06/17 06:30:46;;;;;;;2.80;2.60;;;25.90;45.10;;;;;;4923425;29;20444;-88
2022/06/17 06:33:17;;;;;;;2.50;2.40;;;25.90;45.20;;;;;;4922957;29;20443;-87
2022/06/17 06:35:55;;;;;;;2.30;2.20;;;25.90;44.80;;;;;;4919399;29;20451;-87
2022/06/17 06:38:32;;;;;;;2.67;2.57;;;26.00;44.90;;;;;;4919128;29;20469;-87
2022/06/17 06:41:03;;;;;;;2.37;2.27;;;26.00;44.80;;;;;;4918098;29;20458;-87
2022/06/17 06:43:44;;;;;;;2.40;2.30;;;26.10;44.80;;;;;;4908552;29;20444;-87
2022/06/17 06:46:24;;;;;;;2.50;2.40;;;26.10;44.70;;;;;;4902814;29;20450;-87
2022/06/17 06:49:10;;;;;;;2.60;2.50;;;26.20;44.70;;;;;;4896506;29;20529;-87
2022/06/17 06:51:38;;;;;;;2.60;2.50;;;26.20;44.60;;;;;;4900205;29;20509;-86
2022/06/17 06:54:08;;;;;;;2.40;2.30;;;26.20;44.60;;;;;;4899178;29;20455;-87
2022/06/17 06:56:38;;;;;;;2.73;2.50;;;26.30;44.60;;;;;;4899545;29;20488;-86
2022/06/17 06:59:09;;;;;;;2.53;2.43;;;26.30;44.50;;;;;;4899486;29;20533;-87
2022/06/17 07:01:46;;;;;;;2.40;2.30;;;26.30;44.50;;;;;;4899393;29;20505;-86
2022/06/17 07:04:15;;;;;;;2.83;2.50;;;26.30;44.40;;;;;;4898689;29;20464;-87
2022/06/17 07:06:46;;;;;;;2.50;2.40;;;26.40;44.50;;;;;;4898852;29;20550;-86
2022/06/17 07:09:20;;;;;;;2.30;2.20;;;26.40;44.40;;;;;;4898445;29;20460;-87
2022/06/17 07:11:51;;;;;;;2.07;1.97;;;26.40;44.40;;;;;;4899552;29;20492;-86
2022/06/17 07:17:03;;;;;;;4.93;2.70;;;26.50;44.30;;;;;;4897670;29;20454;-87
2022/06/17 07:19:37;;;;;;;2.57;2.47;;;26.50;44.30;;;;;;4913200;29;20411;-87
2022/06/17 07:22:27;;;;;;;2.37;2.27;;;26.50;44.30;;;;;;4920408;29;20482;-86
2022/06/17 07:24:55;;;;;;;2.50;2.30;;;26.60;44.30;;;;;;4917250;29;20431;-87
2022/06/17 07:27:24;;;;;;;2.50;2.30;;;26.60;44.10;;;;;;4917171;29;20449;-87
2022/06/17 07:30:03;;;;;;;2.50;2.30;;;26.70;44.20;;;;;;4918226;29;20477;-87
2022/06/17 07:32:35;;;;;;;2.17;2.07;;;26.70;44.20;;;;;;4916811;29;21043;-87
2022/06/17 07:35:03;;;;;;;2.50;2.40;;;26.70;44.20;;;;;;4917831;29;20457;-88
2022/06/17 07:40:17;;;;;;;2.57;2.47;;;26.80;43.90;;;;;;4917124;29;20479;-87
2022/06/17 07:42:46;;;;;;;2.57;2.47;;;26.80;44.00;;;;;;4916966;29;20531;-87
2022/06/17 07:45:17;;;;;;;2.60;2.40;;;26.80;44.00;;;;;;4917496;29;20480;-87
2022/06/17 07:47:48;;;;;;;2.70;2.27;;;26.80;44.00;;;;;;4917068;29;20453;-86
2022/06/17 07:50:18;;;;;;;2.27;2.17;;;26.80;44.00;;;;;;4916557;29;20505;-87
2022/06/17 07:52:46;;;;;;;2.27;2.17;;;26.80;44.00;;;;;;4917235;29;20468;-87
2022/06/17 07:55:16;;;;;;;2.87;2.57;;;26.90;44.00;;;;;;4917571;29;20456;-87
2022/06/17 07:57:48;;;;;;;3.03;2.70;;;26.90;43.90;;;;;;4917571;29;20517;-87
2022/06/17 08:00:22;;;;;;;2.73;2.53;;;27.00;44.00;;;;;;4917630;29;20452;-87
2022/06/17 08:02:53;;;;;;;2.60;2.50;;;27.00;43.90;;;;;;4917732;29;20487;-87
2022/06/17 08:05:21;;;;;;;2.60;2.50;;;27.00;43.70;;;;;;4917530;29;20521;-87
2022/06/17 08:07:51;;;;;;;2.53;2.43;;;27.10;44.40;;;;;;4910697;29;20449;-87
2022/06/17 08:10:21;;;;;;;2.43;2.30;;;27.10;43.80;;;;;;4908332;29;20504;-87
2022/06/17 08:12:50;;;;;;;3.53;2.30;;;27.10;43.80;;;;;;4908749;29;20476;-87
2022/06/17 08:15:20;;;;;;;2.20;2.10;;;27.10;43.70;;;;;;4908520;29;20446;-87
2022/06/17 08:17:48;;;;;;;2.80;2.60;;;27.10;43.80;;;;;;4908089;29;20452;-87
2022/06/17 08:20:20;;;;;;;2.47;2.30;;;27.10;43.70;;;;;;4915631;29;20506;-88
2022/06/17 08:22:49;;;;;;;2.77;2.60;;;27.20;43.80;;;;;;4912371;29;20470;-87
2022/06/17 08:25:17;;;;;;;2.63;2.53;;;27.20;43.80;;;;;;4905730;29;20544;-87
2022/06/17 08:27:45;;;;;;;2.50;2.40;;;27.20;43.70;;;;;;4902241;29;20579;-88
2022/06/17 08:30:14;;;;;;;2.53;2.43;;;27.20;43.70;;;;;;4898483;29;20553;-87
2022/06/17 08:32:48;;;;;;;2.30;2.10;;;27.30;43.70;;;;;;4893055;29;20470;-88
2022/06/17 08:35:17;;;;;;;2.17;2.07;;;27.30;43.60;;;;;;4897697;29;20485;-88
2022/06/17 08:37:55;;;;;;;2.60;2.40;;;27.40;43.60;;;;;;4897558;29;20457;-88
2022/06/17 08:40:40;;;;;;;2.70;2.50;;;27.40;43.60;;;;;;4898380;29;20452;-89
2022/06/17 08:43:36;;;;;;;2.97;2.77;;;27.40;43.60;;;;;;4897034;29;20481;-85
2022/06/17 08:46:18;;;;;;;2.50;2.40;;;27.50;43.60;;;;;;4900329;29;20450;-86
2022/06/17 08:49:02;;;;;;;2.70;2.40;;;27.60;43.60;;;;;;4897116;29;20545;-85
2022/06/17 08:51:38;;;;;;;2.43;2.33;;;27.60;43.40;;;;;;4898138;29;20460;-85
2022/06/17 08:54:13;;;;;;;3.27;2.43;;;27.70;43.30;;;;;;4898134;29;20450;-85
2022/06/17 08:56:45;;;;;;;2.70;2.60;;;27.70;43.30;;;;;;4898643;29;20461;-87
2022/06/17 08:59:24;;;;;;;2.50;2.40;;;27.80;43.40;;;;;;4898715;29;20549;-87
2022/06/17 09:01:55;;;;;;;2.33;2.23;;;27.90;43.20;;;;;;4898969;29;20510;-87
2022/06/17 09:04:32;;;;;;;2.37;2.27;;;27.90;43.10;;;;;;4904694;29;20517;-87
2022/06/17 09:07:09;;;;;;;3.43;3.13;;;28.00;43.00;;;;;;4929727;29;20474;-88
2022/06/17 09:09:54;;;;;;;2.90;2.70;;;28.00;42.60;;;;;;4935853;29;20460;-88
2022/06/17 09:12:38;;;;;;;2.30;2.20;;;28.10;43.10;;;;;;4935681;29;20534;-88
2022/06/17 09:15:10;;;;;;;2.23;2.13;;;28.10;42.60;;;;;;4937779;29;20500;-83
2022/06/17 09:18:07;;;;;;;3.27;2.40;;;28.10;42.40;;;;;;4940134;29;20508;-86
2022/06/17 09:21:07;;;;;;;2.70;2.50;;;28.20;42.40;;;;;;4939986;29;20504;-86
2022/06/17 09:23:38;;;;;;;3.73;2.50;;;28.20;42.40;;;;;;4938573;29;20455;-85
2022/06/17 09:26:09;;;;;;;3.23;2.43;;;28.30;42.20;;;;;;4939584;29;20456;-85
2022/06/17 09:28:39;;;;;;;3.93;2.20;;;28.40;42.40;;;;;;4940605;29;20458;-83
2022/06/17 09:31:10;;;;;;;2.60;2.40;;;28.40;42.10;;;;;;4938082;29;20479;-85
2022/06/17 09:33:40;;;;;;;2.93;2.50;;;28.50;42.00;;;;;;4944358;29;21018;-84
2022/06/17 09:36:12;;;;;;;6.13;3.00;;;28.50;41.90;;;;;;4944933;29;20448;-83
2022/06/17 09:38:43;;;;;;;3.43;2.60;;;28.60;41.90;;;;;;4945382;29;20951;-85
2022/06/17 09:41:14;;;;;;;2.80;2.60;;;28.60;41.80;;;;;;4946551;29;20474;-87
2022/06/17 09:43:51;;;;;;;3.63;2.50;;;28.60;41.90;;;;;;4947681;29;20459;-85
2022/06/17 09:49:15;;;;;;;2.87;2.67;;;28.70;41.90;;;;;;4957740;28;20498;-85
2022/06/17 09:52:01;;;;;;;5.80;3.73;;;28.80;41.80;;;;;;4962877;28;20513;-80
2022/06/17 09:54:32;;;;;;;4.60;3.77;;;28.80;42.80;;;;;;4960417;28;20447;-80
2022/06/17 09:57:02;;;;;;;5.43;3.80;;;29.00;42.70;;;;;;4961489;28;20447;-80
2022/06/17 09:59:32;;;;;;;3.53;3.33;;;29.00;42.70;;;;;;4962205;28;20451;-82
2022/06/17 10:02:03;;;;;;;5.80;3.60;;;29.10;42.50;;;;;;4960803;28;20552;-82
2022/06/17 10:04:31;;;;;;;5.20;3.37;;;29.10;42.70;;;;;;4968434;28;20548;-85
2022/06/17 10:07:06;;;;;;;6.50;3.40;;;29.10;42.40;;;;;;4975288;28;20510;-85
2022/06/17 10:09:40;;;;;;;4.63;3.33;;;29.00;42.50;;;;;;4967496;29;20474;-85
2022/06/17 10:12:12;;;;;;;3.70;3.20;;;29.00;42.50;;;;;;4965888;29;20511;-85
2022/06/17 10:14:52;;;;;;;5.60;3.10;;;29.00;42.40;;;;;;4966990;29;20458;-85
2022/06/17 10:20:16;;;;;;;4.80;3.20;;;29.00;43.00;;;;;;4970559;29;20458;-85
2022/06/17 10:22:51;;;;;;;3.20;3.00;;;28.90;42.20;;;;;;4968808;29;20459;-85
2022/06/17 10:25:26;;;;;;;3.67;3.33;;;28.90;42.30;;;;;;4970619;29;20447;-83
2022/06/17 10:28:02;;;;;;;6.93;3.00;;;28.90;42.30;;;;;;4970672;29;20473;-85
2022/06/17 10:30:35;;;;;;;4.80;2.97;;;29.00;42.10;;;;;;4969535;29;20446;-85
2022/06/17 10:33:04;;;;;;;3.47;3.20;;;29.00;42.10;;;;;;4969840;29;20507;-85
2022/06/17 10:35:34;;;;;;;3.37;3.07;;;29.00;42.10;;;;;;4969269;28;20451;-84
2022/06/17 10:38:20;;;;;;;7.30;3.63;;;29.00;42.00;;;;;;4972355;29;20938;-84
2022/06/17 10:40:48;;;;;;;3.30;3.10;;;29.10;41.90;;;;;;4972345;29;20460;-85
2022/06/17 10:43:18;;;;;;;3.00;2.80;;;29.10;41.90;;;;;;4968910;28;20463;-85
2022/06/17 10:45:46;;;;;;;4.33;2.80;;;29.10;41.80;;;;;;4970015;29;20544;-85
2022/06/17 10:48:18;;;;;;;4.23;3.07;;;29.20;41.70;;;;;;4969808;28;20986;-85
2022/06/17 10:50:46;;;;;;;3.30;3.00;;;29.20;41.60;;;;;;4969607;29;20447;-85
2022/06/17 10:53:17;;;;;;;3.00;2.90;;;29.20;41.50;;;;;;4970362;28;20491;-85
2022/06/17 10:55:48;;;;;;;4.97;3.13;;;29.30;41.50;;;;;;4969481;29;20462;-85
2022/06/17 10:58:22;;;;;;;5.20;2.87;;;29.40;41.50;;;;;;4970135;29;20472;-85
2022/06/17 11:00:55;;;;;;;3.73;2.80;;;29.40;41.40;;;;;;4969785;28;20514;-85
2022/06/17 11:03:26;;;;;;;5.00;2.67;;;29.50;41.40;;;;;;4970295;28;20455;-85
2022/06/17 11:06:13;;;;;;;3.33;3.10;;;29.50;41.30;;;;;;4969796;29;20455;-85
2022/06/17 11:08:42;;;;;;;4.60;2.90;;;29.50;41.10;;;;;;4970019;29;20477;-84
2022/06/17 11:13:58;;;;;;;4.30;2.60;;;29.50;41.10;;;;;;4970117;29;20454;-85
2022/06/17 11:16:27;;;;;;;3.23;2.97;;;29.60;41.10;;;;;;4969628;28;20495;-86
2022/06/17 11:18:58;;;;;;;3.60;3.00;;;29.60;41.00;;;;;;4969709;28;20475;-85
2022/06/17 11:21:28;;;;;;;2.83;2.63;;;29.70;41.00;;;;;;4969757;29;20486;-85
2022/06/17 11:23:58;;;;;;;4.47;3.10;;;29.70;40.90;;;;;;4970732;29;20480;-85
2022/06/17 11:26:30;;;;;;;2.87;2.67;;;29.70;41.00;;;;;;4969930;28;20444;-85
2022/06/17 11:29:00;;;;;;;3.07;2.80;;;29.80;40.90;;;;;;4970294;29;20523;-85
2022/06/17 11:31:38;;;;;;;3.83;2.70;;;29.80;40.90;;;;;;4969168;28;20458;-86
2022/06/17 11:34:15;;;;;;;2.87;2.67;;;29.90;40.80;;;;;;4969195;29;20451;-85
2022/06/17 11:36:56;;;;;;;3.10;2.90;;;29.90;40.50;;;;;;4968340;29;20454;-85
2022/06/17 11:39:33;;;;;;;3.57;3.27;;;29.90;40.50;;;;;;4969317;29;20499;-86
2022/06/17 11:42:05;;;;;;;2.77;2.53;;;29.90;40.40;;;;;;4968706;29;20467;-85
2022/06/17 11:44:33;;;;;;;3.13;2.80;;;29.90;40.40;;;;;;4969093;29;20447;-85
2022/06/17 11:47:02;;;;;;;3.13;2.73;;;29.90;40.40;;;;;;4968675;28;20450;-85
2022/06/17 11:49:34;;;;;;;2.73;2.60;;;29.90;40.30;;;;;;4968068;28;20451;-86
2022/06/17 11:52:03;;;;;;;4.97;3.00;;;29.90;40.40;;;;;;4968547;29;20985;-85
2022/06/17 11:54:34;;;;;;;3.30;3.10;;;30.00;40.50;;;;;;4968107;28;20458;-85
2022/06/17 11:57:14;;;;;;;4.43;3.33;;;30.00;41.00;;;;;;4967785;28;20478;-85
2022/06/17 11:59:44;;;;;;;2.70;2.60;;;30.00;40.30;;;;;;4969059;29;20445;-85
2022/06/17 12:02:13;;;;;;;2.90;2.70;;;30.00;40.30;;;;;;4964980;28;20451;-85
2022/06/17 12:04:43;;;;;;;2.70;2.60;;;30.10;40.30;;;;;;4963749;28;20442;-86
2022/06/17 12:07:35;;;;;;;3.27;2.50;;;30.10;40.20;;;;;;4967512;29;20451;-85
2022/06/17 12:10:10;;;;;;;4.90;2.60;;;30.10;40.20;;;;;;4968324;29;20459;-85
2022/06/17 12:12:40;;;;;;;3.37;3.03;;;30.10;40.30;;;;;;4967863;29;20486;-85
2022/06/17 12:15:14;;;;;;;3.13;2.53;;;30.10;40.30;;;;;;4962633;28;20595;-85
2022/06/17 12:17:42;;;;;;;3.13;2.83;;;30.10;40.30;;;;;;4961335;28;20470;-85
2022/06/17 12:20:13;;;;;;;2.77;2.57;;;30.20;40.20;;;;;;4960455;28;20494;-84
2022/06/17 12:22:43;;;;;;;3.20;2.73;;;30.20;40.20;;;;;;4960044;28;20478;-84
2022/06/17 12:25:15;;;;;;;3.00;2.80;;;30.20;40.10;;;;;;4959973;28;20546;-85
2022/06/17 12:27:48;;;;;;;3.73;2.80;;;30.20;40.00;;;;;;4961963;28;20442;-84
2022/06/17 12:30:36;;;;;;;2.90;2.70;;;30.20;40.00;;;;;;4962407;28;20451;-85
2022/06/17 12:33:06;;;;;;;3.20;2.90;;;30.30;39.90;;;;;;4961062;28;20479;-84
2022/06/17 12:35:37;;;;;;;3.80;2.80;;;30.30;39.90;;;;;;4961235;28;20439;-84
2022/06/17 12:38:08;;;;;;;3.10;2.90;;;30.30;39.80;;;;;;4960139;28;20455;-84
2022/06/17 12:40:39;;;;;;;2.60;2.40;;;30.30;40.00;;;;;;4961446;28;20450;-86
2022/06/17 12:43:12;;;;;;;4.17;2.80;;;30.30;40.00;;;;;;4961079;28;20531;-86
2022/06/17 12:45:48;;;;;;;3.13;2.93;;;30.40;40.00;;;;;;4960791;28;20511;-86
2022/06/17 12:48:22;;;;;;;2.70;2.60;;;30.40;40.00;;;;;;4961447;28;20446;-84
2022/06/17 12:53:45;;;;;;;3.40;3.17;;;30.50;39.90;;;;;;4961078;28;20507;-84
2022/06/17 12:56:22;;;;;;;3.23;3.03;;;30.60;39.80;;;;;;4960488;28;20567;-86
2022/06/17 12:59:28;;;;;;;3.00;2.90;;;30.60;39.90;;;;;;4959276;28;20454;-87
2022/06/17 13:02:00;;;;;;;3.90;3.00;;;30.70;40.00;;;;;;4959130;28;20463;-87
2022/06/17 13:04:47;;;;;;;3.43;2.80;;;30.60;40.00;;;;;;4956859;29;20455;-86
2022/06/17 13:07:18;;;;;;;2.93;2.73;;;30.70;39.90;;;;;;4949102;28;20466;-86
2022/06/17 13:09:52;;;;;;;3.40;3.20;;;30.70;39.80;;;;;;4958641;28;20454;-86
2022/06/17 13:12:22;;;;;;;2.90;2.70;;;30.70;39.80;;;;;;4959832;28;20526;-86
2022/06/17 13:14:58;;;;;;;5.90;2.73;;;30.70;39.70;;;;;;4959800;28;20537;-86
2022/06/17 13:17:30;;;;;;;3.40;3.20;;;30.70;40.30;;;;;;4964864;28;20461;-86
2022/06/17 13:20:03;;;;;;;3.23;2.90;;;30.70;39.70;;;;;;4958868;28;20450;-86
2022/06/17 13:22:34;;;;;;;3.10;2.87;;;30.70;39.60;;;;;;4958685;28;20493;-86
2022/06/17 13:25:07;;;;;;;3.03;2.80;;;30.70;39.60;;;;;;4958505;28;20475;-86
2022/06/17 13:27:36;;;;;;;3.17;2.97;;;30.70;39.60;;;;;;4957821;28;20515;-86
2022/06/17 13:30:10;;;;;;;3.00;2.90;;;30.60;39.60;;;;;;4958229;28;20459;-86
2022/06/17 13:32:40;;;;;;;2.90;2.70;;;30.70;39.70;;;;;;4958112;28;20985;-86
2022/06/17 13:35:14;;;;;;;2.70;2.50;;;30.70;39.70;;;;;;4958497;28;20453;-86
2022/06/17 13:37:45;;;;;;;2.93;2.73;;;30.70;39.60;;;;;;4958204;29;20525;-86
2022/06/17 13:40:16;;;;;;;3.30;3.00;;;30.70;39.80;;;;;;4958373;29;20457;-86
2022/06/17 13:42:44;;;;;;;15.47;3.17;;;30.70;39.70;;;;;;4958159;29;20474;-86